Time;durP1;ratioP1;P1;durP2;ratioP2;P2;SDS_P1;SDS_P2;PMS_P1;PMS_P2;Temp;Humidity;BMP_temperature;BMP_pressure;BME280_temperature;BME280_humidity;BME280_pressure;Samples;Min_cycle;Max_cycle;Signal;HPM_P1;HPM_P2
2022/01/27 09:35:14;;;;;;;17.30;6.27;;;7.40;99.90;;;;;;5130243;27;20545;-75
2022/01/27 15:57:29;;;;;;;7.90;5.10;;;8.70;99.90;;;;;;5151172;27;20604;-77
2022/01/27 15:59:55;;;;;;;7.40;4.43;;;9.60;99.90;;;;;;5128189;27;20202;-76
2022/01/27 16:02:22;;;;;;;8.93;4.30;;;9.80;99.90;;;;;;5112034;27;20286;-77
2022/01/27 16:04:49;;;;;;;8.60;4.47;;;9.70;99.90;;;;;;5110297;28;20206;-77
2022/01/27 16:07:17;;;;;;;6.83;4.47;;;9.60;99.90;;;;;;5109706;28;20589;-73
2022/01/27 16:09:44;;;;;;;8.83;4.13;;;9.60;99.90;;;;;;5109864;28;20208;-78
2022/01/27 16:12:11;;;;;;;10.07;4.70;;;9.70;99.90;;;;;;5110165;28;20232;-73
2022/01/27 16:14:39;;;;;;;10.97;4.50;;;9.70;99.90;;;;;;5115584;28;20293;-82
2022/01/27 16:17:07;;;;;;;6.97;4.40;;;9.80;99.90;;;;;;5113284;28;20204;-76
2022/01/27 16:19:34;;;;;;;7.60;4.13;;;9.80;99.90;;;;;;5110015;28;20209;-75
2022/01/27 16:22:00;;;;;;;9.10;4.90;;;9.60;99.90;;;;;;5109979;28;20702;-83
2022/01/27 16:24:27;;;;;;;5.77;4.00;;;9.60;99.90;;;;;;5111149;28;20745;-81
2022/01/27 16:26:54;;;;;;;9.07;4.37;;;9.60;99.90;;;;;;5110816;28;20234;-80
2022/01/27 16:29:21;;;;;;;8.00;4.30;;;9.60;99.90;;;;;;5109897;28;20547;-83
2022/01/27 16:31:49;;;;;;;8.37;4.30;;;9.50;99.90;;;;;;5109184;28;20222;-85
2022/01/27 16:34:16;;;;;;;8.07;4.30;;;9.50;99.90;;;;;;5113110;28;20205;-82
2022/01/27 16:36:45;;;;;;;7.03;4.30;;;9.50;99.90;;;;;;5109434;28;20198;-85
2022/01/27 16:39:15;;;;;;;7.70;3.77;;;9.60;99.90;;;;;;5110620;28;20206;-79
2022/01/27 16:41:42;;;;;;;7.00;3.67;;;9.60;99.90;;;;;;5113602;28;20210;-75
2022/01/27 16:44:09;;;;;;;6.97;4.00;;;9.60;99.90;;;;;;5109193;28;21268;-78
2022/01/27 16:46:36;;;;;;;9.13;3.60;;;9.60;99.90;;;;;;5112960;28;20228;-83
2022/01/27 16:49:04;;;;;;;8.13;3.50;;;9.60;99.90;;;;;;5109163;28;20206;-77
2022/01/27 16:51:31;;;;;;;6.37;3.47;;;9.50;99.90;;;;;;5108941;28;20226;-69
2022/01/27 16:53:58;;;;;;;7.43;3.40;;;9.60;99.90;;;;;;5148332;27;20289;-74
2022/01/27 16:56:24;;;;;;;5.97;3.10;;;9.60;99.90;;;;;;5148119;27;20218;-73
2022/01/27 16:58:51;;;;;;;7.03;3.80;;;9.60;99.90;;;;;;5100664;27;20202;-71
2022/01/27 17:01:19;;;;;;;6.43;3.20;;;9.60;99.90;;;;;;5095175;28;20233;-74
2022/01/27 17:03:46;;;;;;;6.73;2.87;;;9.70;99.90;;;;;;5098200;28;20194;-74
2022/01/27 17:06:14;;;;;;;4.67;3.03;;;9.70;99.90;;;;;;5114767;28;20233;-77
2022/01/27 17:08:41;;;;;;;7.23;3.23;;;9.80;99.90;;;;;;5099189;28;20217;-76
2022/01/27 17:11:08;;;;;;;8.20;3.10;;;9.80;99.90;;;;;;5095233;28;20598;-78
2022/01/27 17:13:35;;;;;;;4.83;2.90;;;9.80;99.90;;;;;;5095694;28;20471;-73
2022/01/27 17:16:02;;;;;;;6.90;2.93;;;9.80;99.90;;;;;;5094801;28;20301;-77
2022/01/27 17:18:29;;;;;;;5.87;2.97;;;9.70;99.90;;;;;;5095827;28;20230;-78
2022/01/27 17:20:56;;;;;;;6.70;3.07;;;9.70;99.90;;;;;;5098076;28;20218;-75
2022/01/27 17:23:24;;;;;;;4.03;2.70;;;9.60;99.90;;;;;;5093774;28;20822;-75
2022/01/27 17:25:51;;;;;;;6.17;3.23;;;9.50;99.90;;;;;;5094374;28;20230;-78
2022/01/27 17:28:18;;;;;;;4.93;2.50;;;9.50;99.90;;;;;;5094484;28;20213;-74
2022/01/27 17:30:45;;;;;;;6.03;2.90;;;9.40;99.90;;;;;;5103331;28;20228;-70
2022/01/27 17:33:12;;;;;;;4.93;2.77;;;9.30;99.90;;;;;;5114753;28;20212;-72
2022/01/27 17:35:38;;;;;;;7.33;3.10;;;9.20;99.90;;;;;;5105288;28;20655;-77
2022/01/27 17:38:05;;;;;;;4.80;2.80;;;9.20;99.90;;;;;;5099782;28;20205;-73
2022/01/27 17:40:34;;;;;;;5.97;3.10;;;9.10;99.90;;;;;;5112187;28;20214;-74
2022/01/27 17:43:11;;;;;;;6.57;3.13;;;9.10;99.90;;;;;;5097676;28;20631;-74
2022/01/27 17:45:38;;;;;;;5.60;3.00;;;9.00;99.90;;;;;;5094755;28;20320;-70
2022/01/27 17:48:05;;;;;;;9.27;3.07;;;9.00;99.90;;;;;;5094390;28;20210;-71
2022/01/27 17:50:32;;;;;;;5.30;3.23;;;8.80;99.90;;;;;;5094084;28;20222;-70
2022/01/27 17:52:58;;;;;;;10.13;2.97;;;8.80;99.90;;;;;;5094443;28;20662;-71
2022/01/27 17:55:26;;;;;;;6.20;2.70;;;8.80;99.90;;;;;;5094270;28;20206;-73
2022/01/27 17:57:55;;;;;;;5.53;3.27;;;8.70;99.90;;;;;;5096642;28;20658;-71
2022/01/27 18:00:22;;;;;;;5.83;3.07;;;8.80;99.90;;;;;;5095886;28;20664;-72
2022/01/27 18:02:59;;;;;;;;;;;;;;;;;;;;;
2022/01/27 18:05:27;;;;;;;6.13;2.90;;;8.70;99.90;;;;;;5093925;28;20206;-74
2022/01/27 18:07:55;;;;;;;5.67;3.03;;;8.70;99.90;;;;;;5093247;28;20199;-73
2022/01/27 18:10:24;;;;;;;6.77;3.33;;;8.70;99.90;;;;;;5092731;28;20710;-72
2022/01/27 18:12:53;;;;;;;8.50;3.13;;;8.80;99.90;;;;;;5093734;28;20206;-73
2022/01/27 18:15:21;;;;;;;9.07;3.47;;;8.80;99.90;;;;;;5099064;28;20190;-74
2022/01/27 18:17:49;;;;;;;9.17;3.30;;;8.80;99.90;;;;;;5114302;28;20202;-73
2022/01/27 18:20:16;;;;;;;5.57;3.37;;;8.80;99.90;;;;;;5114466;28;20225;-71
2022/01/27 18:22:43;;;;;;;5.53;2.87;;;8.70;99.90;;;;;;5113913;28;20202;-71
2022/01/27 18:25:10;;;;;;;5.50;2.83;;;8.60;99.90;;;;;;5114008;28;20201;-72
2022/01/27 18:27:37;;;;;;;8.20;3.00;;;8.60;99.90;;;;;;5113687;28;20240;-70
2022/01/27 18:30:05;;;;;;;9.87;3.60;;;8.70;99.90;;;;;;5113783;27;20216;-73
2022/01/27 18:32:33;;;;;;;8.13;3.37;;;8.70;99.90;;;;;;5100271;28;20233;-72
2022/01/27 18:35:00;;;;;;;5.33;2.97;;;8.80;99.90;;;;;;5092469;28;20206;-72
2022/01/27 18:37:27;;;;;;;7.23;3.13;;;8.80;99.90;;;;;;5094375;28;20213;-73
2022/01/27 18:39:53;;;;;;;8.27;3.50;;;8.90;99.90;;;;;;5100911;28;20194;-72
2022/01/27 18:42:20;;;;;;;7.17;3.30;;;8.90;99.90;;;;;;5092555;28;20203;-73
2022/01/27 18:44:47;;;;;;;8.10;4.23;;;8.90;99.90;;;;;;5099211;28;20199;-72
2022/01/27 18:47:14;;;;;;;11.63;4.00;;;8.90;99.90;;;;;;5092011;28;20230;-73
2022/01/27 18:49:42;;;;;;;7.67;3.63;;;8.90;99.90;;;;;;5092631;28;20203;-72
2022/01/27 18:52:11;;;;;;;7.60;3.90;;;8.90;99.90;;;;;;5092922;28;20222;-71
2022/01/27 18:54:38;;;;;;;7.43;3.43;;;8.80;99.90;;;;;;5092926;28;20209;-71
2022/01/27 18:57:06;;;;;;;6.90;3.33;;;8.80;99.90;;;;;;5095468;28;20210;-72
2022/01/27 18:59:34;;;;;;;10.00;3.50;;;8.70;99.90;;;;;;5104169;28;20198;-73
2022/01/27 19:02:01;;;;;;;8.00;3.73;;;8.70;99.90;;;;;;5105736;28;20226;-73
2022/01/27 19:04:28;;;;;;;5.90;3.37;;;8.60;99.90;;;;;;5113011;28;20202;-72
2022/01/27 19:06:56;;;;;;;9.57;3.77;;;8.50;99.90;;;;;;5113039;28;20233;-72
2022/01/27 19:09:23;;;;;;;9.63;3.50;;;8.50;99.90;;;;;;5112177;28;20202;-71
2022/01/27 19:11:50;;;;;;;9.13;4.07;;;8.60;99.90;;;;;;5107490;28;20214;-72
2022/01/27 19:14:17;;;;;;;8.63;4.27;;;8.50;99.90;;;;;;5102616;28;20198;-71
2022/01/27 19:16:44;;;;;;;12.37;3.67;;;8.50;99.90;;;;;;5092026;28;20194;-72
2022/01/27 19:19:13;;;;;;;8.33;3.67;;;8.40;99.90;;;;;;5091200;28;20558;-71
2022/01/27 19:21:40;;;;;;;12.83;3.90;;;8.50;99.90;;;;;;5091692;28;20709;-72
2022/01/27 19:24:12;;;;;;;9.13;4.40;;;8.50;99.90;;;;;;5097645;28;20293;-73
2022/01/27 19:26:40;;;;;;;9.40;3.97;;;8.50;99.90;;;;;;5111655;28;20623;-73
2022/01/27 19:29:07;;;;;;;8.77;4.37;;;8.60;99.90;;;;;;5106798;28;20198;-72
2022/01/27 19:31:34;;;;;;;6.93;4.00;;;8.70;99.90;;;;;;5113062;28;20226;-72
2022/01/27 19:34:03;;;;;;;10.90;3.50;;;8.70;99.90;;;;;;5113508;28;20207;-71
2022/01/27 19:36:30;;;;;;;6.73;3.77;;;8.70;99.90;;;;;;5112667;28;20231;-72
2022/01/27 19:38:58;;;;;;;8.20;4.00;;;8.80;99.90;;;;;;5105718;28;20205;-72
2022/01/27 19:41:26;;;;;;;6.43;3.83;;;8.90;99.90;;;;;;5093433;28;20222;-71
2022/01/27 19:43:53;;;;;;;6.27;3.63;;;9.00;99.90;;;;;;5093390;28;20214;-75
2022/01/27 19:46:20;;;;;;;7.30;3.73;;;9.10;99.90;;;;;;5096123;28;20226;-75
2022/01/27 19:48:47;;;;;;;7.13;4.20;;;9.00;99.90;;;;;;5092359;28;20199;-74
2022/01/27 19:51:18;;;;;;;11.80;4.10;;;9.00;99.90;;;;;;5092321;28;20227;-74
2022/01/27 19:53:45;;;;;;;7.83;4.30;;;9.00;99.90;;;;;;5092609;28;20213;-70
2022/01/27 19:56:14;;;;;;;7.93;4.13;;;9.10;99.90;;;;;;5095186;28;20207;-72
2022/01/27 19:58:43;;;;;;;9.87;4.50;;;9.00;99.90;;;;;;5105491;28;20211;-73
2022/01/27 20:01:10;;;;;;;7.33;4.20;;;9.00;99.90;;;;;;5096717;28;20213;-72
2022/01/27 20:03:37;;;;;;;9.40;4.83;;;9.00;99.90;;;;;;5117190;28;20200;-72
2022/01/27 20:06:05;;;;;;;9.40;4.40;;;9.10;99.90;;;;;;5110236;27;20199;-71
2022/01/27 20:08:35;;;;;;;7.67;4.20;;;9.00;99.90;;;;;;5095581;28;20671;-72
2022/01/27 20:11:03;;;;;;;10.23;4.57;;;9.00;99.90;;;;;;5106968;28;20312;-71
2022/01/27 20:13:30;;;;;;;10.33;4.87;;;8.90;99.90;;;;;;5109760;28;20209;-71
2022/01/27 20:15:59;;;;;;;13.10;5.13;;;8.80;99.90;;;;;;5095894;28;20210;-70
2022/01/27 20:18:28;;;;;;;13.17;4.17;;;8.90;99.90;;;;;;5105159;28;20253;-71
2022/01/27 20:20:56;;;;;;;7.40;3.93;;;8.80;99.90;;;;;;5111291;28;20309;-71
2022/01/27 20:23:25;;;;;;;10.13;4.00;;;8.80;99.90;;;;;;5103496;28;20194;-72
2022/01/27 20:25:53;;;;;;;9.87;4.13;;;8.70;99.90;;;;;;5091703;28;20198;-73
2022/01/27 20:28:20;;;;;;;9.10;4.03;;;8.70;99.90;;;;;;5091270;28;20233;-73
2022/01/27 20:30:47;;;;;;;8.73;4.33;;;8.60;99.90;;;;;;5091399;28;20241;-72
2022/01/27 20:33:15;;;;;;;10.33;4.40;;;8.60;99.90;;;;;;5094393;28;20554;-72
2022/01/27 20:35:42;;;;;;;7.80;3.93;;;8.70;99.90;;;;;;5095339;28;20245;-72
2022/01/27 20:38:09;;;;;;;11.13;4.07;;;8.70;99.90;;;;;;5095644;28;20217;-72
2022/01/27 20:40:37;;;;;;;10.73;4.90;;;8.70;99.90;;;;;;5095746;28;20223;-73
2022/01/27 20:43:06;;;;;;;9.20;3.73;;;8.70;99.90;;;;;;5095613;28;20203;-72
2022/01/27 20:45:33;;;;;;;6.83;4.27;;;8.80;99.90;;;;;;5095258;28;20202;-73
2022/01/27 20:48:07;;;;;;;11.47;4.50;;;8.70;99.90;;;;;;5095285;28;20230;-72
2022/01/27 20:50:35;;;;;;;11.87;4.87;;;8.60;99.90;;;;;;5095645;28;20226;-71
2022/01/27 20:53:03;;;;;;;11.73;3.93;;;8.50;99.90;;;;;;5095525;28;20211;-72
2022/01/27 20:55:30;;;;;;;8.43;4.17;;;8.40;99.90;;;;;;5094996;28;20214;-71
2022/01/27 20:57:58;;;;;;;9.40;4.07;;;8.40;99.90;;;;;;5095456;28;20216;-73
2022/01/27 21:00:26;;;;;;;9.90;3.80;;;8.40;99.90;;;;;;5094631;28;20309;-72
2022/01/27 21:02:52;;;;;;;7.87;3.63;;;8.50;99.90;;;;;;5095209;28;20220;-71
2022/01/27 21:05:19;;;;;;;11.60;3.90;;;8.50;99.90;;;;;;5095468;28;20242;-71
2022/01/27 21:07:47;;;;;;;9.23;4.23;;;8.50;99.90;;;;;;5094968;28;20226;-70
2022/01/27 21:10:14;;;;;;;11.00;4.77;;;8.60;99.90;;;;;;5094054;28;20202;-71
2022/01/27 21:12:41;;;;;;;6.13;3.83;;;8.50;99.90;;;;;;5094762;28;20206;-72
2022/01/27 21:15:10;;;;;;;12.90;4.60;;;8.50;99.90;;;;;;5095279;28;20289;-73
2022/01/27 21:17:38;;;;;;;10.50;3.60;;;8.50;99.90;;;;;;5106852;28;20630;-72
2022/01/27 21:20:07;;;;;;;12.07;4.00;;;8.50;99.90;;;;;;5115312;28;20568;-73
2022/01/27 21:22:34;;;;;;;6.00;3.40;;;8.50;99.90;;;;;;5115333;28;20284;-72
2022/01/27 21:25:03;;;;;;;6.37;3.77;;;8.50;99.90;;;;;;5114895;28;20221;-72
2022/01/27 21:27:30;;;;;;;6.83;3.23;;;8.40;99.90;;;;;;5115041;27;20236;-71
2022/01/27 21:29:57;;;;;;;12.73;3.60;;;8.20;99.90;;;;;;5115334;28;20212;-73
2022/01/27 21:32:24;;;;;;;6.70;3.50;;;8.20;99.90;;;;;;5111546;28;20570;-71
2022/01/27 21:34:52;;;;;;;8.30;3.37;;;8.20;99.90;;;;;;5109684;28;20307;-71
2022/01/27 21:37:20;;;;;;;7.10;3.07;;;8.20;99.90;;;;;;5096608;28;20213;-71
2022/01/27 21:39:47;;;;;;;9.77;3.23;;;8.30;99.90;;;;;;5095050;28;20209;-73
2022/01/27 21:42:16;;;;;;;5.83;3.07;;;8.40;99.90;;;;;;5104209;28;20224;-71
2022/01/27 21:44:43;;;;;;;6.47;2.57;;;8.40;99.90;;;;;;5095767;28;20222;-72
2022/01/27 21:47:11;;;;;;;11.03;3.53;;;8.30;99.90;;;;;;5099475;28;20224;-71
2022/01/27 21:49:38;;;;;;;6.27;2.90;;;8.30;99.90;;;;;;5114630;28;20209;-72
2022/01/27 21:52:09;;;;;;;5.07;2.57;;;8.20;99.90;;;;;;5114758;28;20226;-71
2022/01/27 21:54:37;;;;;;;5.57;2.37;;;8.10;99.90;;;;;;5114687;28;20208;-72
2022/01/27 21:57:05;;;;;;;7.77;2.70;;;8.10;99.90;;;;;;5114816;27;20308;-72
2022/01/27 21:59:34;;;;;;;6.77;3.20;;;8.10;99.90;;;;;;5107459;28;20252;-71
2022/01/27 22:02:02;;;;;;;5.83;3.33;;;8.10;99.90;;;;;;5094021;28;20226;-72
2022/01/27 22:04:29;;;;;;;5.20;2.60;;;8.10;99.90;;;;;;5093979;28;20217;-70
2022/01/27 22:06:57;;;;;;;5.47;3.00;;;8.10;99.90;;;;;;5093880;28;20226;-71
2022/01/27 22:09:24;;;;;;;6.20;2.87;;;8.00;99.90;;;;;;5093367;28;20203;-70
2022/01/27 22:11:51;;;;;;;7.20;2.80;;;8.10;99.90;;;;;;5093318;28;20226;-71
2022/01/27 22:14:20;;;;;;;8.10;2.80;;;8.10;99.90;;;;;;5094159;28;20202;-72
2022/01/27 22:16:51;;;;;;;6.50;2.70;;;8.10;99.90;;;;;;5099270;28;20206;-72
2022/01/27 22:19:18;;;;;;;5.57;2.83;;;8.10;99.90;;;;;;5108841;28;20314;-73
2022/01/27 22:21:47;;;;;;;9.63;3.00;;;8.10;99.90;;;;;;5096310;28;20721;-72
2022/01/27 22:24:13;;;;;;;6.07;2.60;;;8.10;99.90;;;;;;5097399;28;20221;-73
2022/01/27 22:26:41;;;;;;;6.23;2.77;;;8.00;99.90;;;;;;5126585;27;20194;-71
2022/01/27 22:29:08;;;;;;;9.10;3.10;;;7.80;99.90;;;;;;5114494;28;20198;-72
2022/01/27 22:31:36;;;;;;;8.63;3.13;;;7.80;99.90;;;;;;5124412;27;20311;-71
